createdAt,value
2019-03-18T00:00:37.848Z,98.30
2019-03-18T00:03:08.432Z,98.30
2019-03-18T00:05:39.166Z,98.40
2019-03-18T00:08:09.841Z,98.60
2019-03-18T00:10:40.514Z,98.60
2019-03-18T00:13:11.263Z,98.60
2019-03-18T00:15:42.005Z,98.70
2019-03-18T00:18:12.753Z,98.80
2019-03-18T00:20:43.263Z,98.90
2019-03-18T00:23:13.892Z,98.80
2019-03-18T00:25:44.625Z,98.60
2019-03-18T00:28:15.376Z,98.20
2019-03-18T00:30:45.991Z,97.90
2019-03-18T00:33:16.623Z,97.50
2019-03-18T00:35:47.195Z,96.80
2019-03-18T00:38:17.886Z,96.70
2019-03-18T00:40:48.728Z,96.80
2019-03-18T00:43:19.469Z,97.20
2019-03-18T00:45:49.933Z,97.70
2019-03-18T00:48:20.562Z,98.20
2019-03-18T00:50:51.348Z,98.40
2019-03-18T00:53:21.886Z,97.80
2019-03-18T00:55:52.414Z,97.80
2019-03-18T00:58:23.957Z,98.00
2019-03-18T01:00:54.397Z,97.90
2019-03-18T01:03:24.807Z,97.90
2019-03-18T01:05:55.345Z,97.90
2019-03-18T01:08:25.978Z,97.70
2019-03-18T01:10:56.461Z,97.80
2019-03-18T01:13:26.878Z,97.80
2019-03-18T01:15:57.561Z,97.90
2019-03-18T01:18:28.077Z,98.00
2019-03-18T01:20:58.729Z,98.00
2019-03-18T01:23:29.143Z,98.10
2019-03-18T01:25:59.685Z,98.30
2019-03-18T01:28:30.099Z,98.50
2019-03-18T01:31:00.744Z,98.60
2019-03-18T01:33:31.202Z,98.80
2019-03-18T01:36:01.791Z,99.10
2019-03-18T01:38:32.327Z,99.20
2019-03-18T01:41:02.846Z,99.10
2019-03-18T01:43:33.385Z,99.10
2019-03-18T01:46:04.070Z,99.10
2019-03-18T01:48:34.437Z,99.10
2019-03-18T01:51:04.986Z,99.10
2019-03-18T01:53:35.407Z,99.10
2019-03-18T01:56:06.001Z,99.20
2019-03-18T01:58:36.515Z,99.10
2019-03-18T02:01:07.341Z,99.00
2019-03-18T02:03:37.914Z,99.10
2019-03-18T02:06:08.521Z,98.90
2019-03-18T02:08:38.915Z,99.00
2019-03-18T02:11:09.400Z,99.00
2019-03-18T02:13:40.104Z,99.00
2019-03-18T02:16:10.568Z,99.20
2019-03-18T02:18:41.202Z,99.30
2019-03-18T02:21:11.633Z,99.70
2019-03-18T02:23:42.094Z,99.90
2019-03-18T02:26:12.507Z,99.90
2019-03-18T02:28:43.000Z,99.90
2019-03-18T02:31:13.543Z,99.90
2019-03-18T02:33:43.964Z,99.90
2019-03-18T02:36:15.357Z,99.90
2019-03-18T02:38:45.933Z,99.90
2019-03-18T02:41:16.401Z,99.90
2019-03-18T02:43:46.890Z,99.90
2019-03-18T02:46:17.420Z,99.90
2019-03-18T02:48:48.058Z,99.90
2019-03-18T02:51:18.595Z,99.90
2019-03-18T02:53:49.121Z,99.90
2019-03-18T02:56:19.637Z,99.90
2019-03-18T02:58:50.054Z,99.90
2019-03-18T03:01:20.520Z,99.90
2019-03-18T03:03:51.032Z,99.90
2019-03-18T03:06:21.479Z,99.90
2019-03-18T03:08:52.079Z,99.90
2019-03-18T03:11:25.588Z,99.90
2019-03-18T03:13:56.213Z,99.90
2019-03-18T03:16:27.715Z,99.90
2019-03-18T03:18:58.508Z,99.90
2019-03-18T03:21:29.024Z,99.90
2019-03-18T03:23:59.663Z,99.90
2019-03-18T03:26:30.311Z,99.90
2019-03-18T03:29:02.252Z,99.90
2019-03-18T03:31:32.764Z,99.90
2019-03-18T03:34:03.321Z,99.90
2019-03-18T03:36:33.849Z,99.90
2019-03-18T03:39:05.494Z,99.90
2019-03-18T03:41:36.024Z,99.90
2019-03-18T03:44:06.491Z,99.90
2019-03-18T03:46:43.104Z,99.90
2019-03-18T03:49:09.048Z,99.90
2019-03-18T03:51:39.584Z,99.90
2019-03-18T03:54:10.077Z,99.90
2019-03-18T03:56:40.588Z,99.90
2019-03-18T03:59:11.132Z,99.90
2019-03-18T04:01:41.837Z,99.90
2019-03-18T04:04:12.325Z,99.90
2019-03-18T04:06:42.961Z,99.90
2019-03-18T04:09:13.525Z,99.90
2019-03-18T04:11:44.109Z,99.90
2019-03-18T04:14:14.743Z,99.90
2019-03-18T04:16:55.937Z,99.90
2019-03-18T04:19:17.548Z,99.90
2019-03-18T04:21:50.632Z,99.90
2019-03-18T04:24:20.240Z,99.90
2019-03-18T04:26:50.589Z,99.90
2019-03-18T04:29:22.861Z,99.90
2019-03-18T04:31:53.457Z,99.90
2019-03-18T04:34:24.198Z,99.90
2019-03-18T04:36:54.837Z,99.90
2019-03-18T04:39:25.357Z,99.90
2019-03-18T04:41:56.316Z,99.90
2019-03-18T04:44:27.056Z,99.90
2019-03-18T04:46:57.607Z,99.90
2019-03-18T04:49:28.147Z,99.90
2019-03-18T04:51:58.676Z,99.90
2019-03-18T04:54:29.197Z,99.90
2019-03-18T04:56:59.748Z,99.90
2019-03-18T04:59:30.138Z,99.90
2019-03-18T05:02:00.630Z,99.90
2019-03-18T05:04:31.051Z,99.90
2019-03-18T05:07:01.580Z,99.90
2019-03-18T05:09:31.962Z,99.90
2019-03-18T05:12:02.407Z,99.90
2019-03-18T05:14:33.064Z,99.90
2019-03-18T05:17:03.709Z,99.90
2019-03-18T05:19:34.328Z,99.90
2019-03-18T05:22:05.148Z,99.90
2019-03-18T05:24:35.689Z,99.90
2019-03-18T05:27:06.335Z,99.90
2019-03-18T05:29:36.840Z,99.90
2019-03-18T05:32:07.381Z,99.90
2019-03-18T05:34:38.001Z,99.90
2019-03-18T05:37:08.884Z,99.90
2019-03-18T05:39:39.569Z,99.90
2019-03-18T05:42:10.198Z,99.90
2019-03-18T05:44:40.745Z,99.90
2019-03-18T05:47:11.171Z,99.90
2019-03-18T05:49:41.762Z,99.90
2019-03-18T05:52:13.849Z,99.90
2019-03-18T05:54:44.336Z,99.90
2019-03-18T05:57:14.926Z,99.90
2019-03-18T05:59:45.454Z,99.90
2019-03-18T06:02:16.087Z,99.90
2019-03-18T06:04:46.617Z,99.90
2019-03-18T06:07:17.178Z,99.90
2019-03-18T06:09:47.791Z,99.90
2019-03-18T06:12:18.416Z,99.90
2019-03-18T06:14:49.020Z,99.90
2019-03-18T06:17:19.639Z,99.90
2019-03-18T06:19:50.455Z,99.90
2019-03-18T06:22:21.155Z,99.90
2019-03-18T06:24:51.646Z,99.90
2019-03-18T06:27:22.372Z,99.90
2019-03-18T06:29:52.837Z,99.90
2019-03-18T06:32:23.337Z,99.90
2019-03-18T06:34:53.883Z,99.90
2019-03-18T06:37:24.468Z,99.90
2019-03-18T06:39:55.156Z,99.90
2019-03-18T06:42:25.801Z,99.90
2019-03-18T06:44:56.456Z,99.90
2019-03-18T06:47:27.343Z,99.90
2019-03-18T06:49:59.548Z,99.90
2019-03-18T06:52:30.234Z,99.90
2019-03-18T06:55:00.856Z,99.90
2019-03-18T06:57:32.499Z,99.90
2019-03-18T07:00:03.165Z,99.90
2019-03-18T07:02:33.620Z,99.90
2019-03-18T07:05:05.408Z,99.90
2019-03-18T07:07:35.907Z,99.90
2019-03-18T07:10:06.715Z,99.90
2019-03-18T07:12:37.296Z,99.90
2019-03-18T07:15:08.298Z,99.90
2019-03-18T07:17:38.848Z,99.90
2019-03-18T07:20:10.811Z,99.90
2019-03-18T07:22:41.781Z,99.90
2019-03-18T07:25:12.465Z,99.90
2019-03-18T07:27:43.019Z,99.90
2019-03-18T07:30:13.857Z,99.30
2019-03-18T07:32:44.599Z,99.30
2019-03-18T07:35:15.258Z,98.40
2019-03-18T07:37:45.870Z,98.40
2019-03-18T07:40:16.552Z,97.20
2019-03-18T07:42:47.161Z,97.80
2019-03-18T07:45:17.860Z,97.90
2019-03-18T07:47:48.583Z,96.60
2019-03-18T07:50:19.211Z,96.70
2019-03-18T07:52:49.735Z,96.00
2019-03-18T07:55:21.864Z,95.60
2019-03-18T07:57:52.411Z,96.50
2019-03-18T08:00:23.069Z,95.50
2019-03-18T08:02:53.740Z,95.40
2019-03-18T08:05:24.528Z,95.60
2019-03-18T08:07:55.122Z,95.30
2019-03-18T08:10:26.070Z,95.10
2019-03-18T08:12:56.640Z,93.80
2019-03-18T08:15:27.250Z,93.30
2019-03-18T08:17:57.851Z,91.70
2019-03-18T08:20:28.524Z,91.60
2019-03-18T08:22:59.201Z,92.70
2019-03-18T08:25:30.139Z,91.80
2019-03-18T08:28:00.788Z,90.80
2019-03-18T08:30:31.369Z,91.30
2019-03-18T08:33:02.023Z,91.20
2019-03-18T08:35:32.572Z,91.10
2019-03-18T08:38:04.048Z,90.70
2019-03-18T08:40:34.571Z,89.30
2019-03-18T08:43:05.245Z,87.80
2019-03-18T08:45:35.807Z,87.00
2019-03-18T08:48:06.365Z,88.30
2019-03-18T08:50:36.702Z,83.30
2019-03-18T08:53:07.539Z,83.50
2019-03-18T08:55:38.117Z,84.90
2019-03-18T08:58:08.650Z,83.30
2019-03-18T09:00:39.183Z,77.80
2019-03-18T09:03:12.527Z,77.30
2019-03-18T09:05:42.916Z,77.20
2019-03-18T09:08:13.370Z,77.20
2019-03-18T09:10:43.997Z,76.10
2019-03-18T09:13:14.381Z,73.10
2019-03-18T09:15:45.132Z,72.70
2019-03-18T09:18:16.880Z,73.00
2019-03-18T09:20:47.287Z,69.80
2019-03-18T09:23:18.076Z,70.90
2019-03-18T09:25:48.692Z,70.20
2019-03-18T09:28:22.207Z,70.10
2019-03-18T09:30:51.928Z,71.30
2019-03-18T09:33:22.461Z,74.10
2019-03-18T09:35:52.930Z,70.30
2019-03-18T09:38:23.620Z,72.30
2019-03-18T09:40:54.103Z,72.50
2019-03-18T09:43:24.763Z,72.60
2019-03-18T09:45:55.356Z,73.00
2019-03-18T09:48:25.907Z,72.70
2019-03-18T09:50:56.438Z,71.70
2019-03-18T09:53:26.883Z,72.20
2019-03-18T09:55:57.405Z,74.90
2019-03-18T09:58:28.010Z,74.20
2019-03-18T10:01:00.100Z,73.50
2019-03-18T10:03:31.423Z,75.20
2019-03-18T10:06:01.937Z,75.40
2019-03-18T10:08:32.626Z,76.10
2019-03-18T10:11:03.250Z,75.50
2019-03-18T10:13:33.905Z,76.70
2019-03-18T10:16:04.519Z,77.20
2019-03-18T10:18:34.893Z,75.40
2019-03-18T10:21:06.267Z,77.20
2019-03-18T10:23:36.928Z,75.60
2019-03-18T10:26:07.308Z,75.60
2019-03-18T10:28:37.867Z,74.90
2019-03-18T10:31:08.481Z,69.70
2019-03-18T10:33:39.170Z,70.40
2019-03-18T10:36:09.884Z,72.90
2019-03-18T10:38:40.387Z,72.60
2019-03-18T10:41:10.852Z,72.70
2019-03-18T10:43:42.358Z,73.30
2019-03-18T10:46:12.932Z,73.00
2019-03-18T10:48:43.427Z,69.60
2019-03-18T10:51:14.016Z,67.10
2019-03-18T10:53:44.688Z,68.10
2019-03-18T10:56:15.491Z,68.50
2019-03-18T10:58:46.011Z,67.10
2019-03-18T11:01:16.548Z,68.20
2019-03-18T11:03:47.171Z,68.90
2019-03-18T11:06:17.692Z,71.40
2019-03-18T11:08:48.370Z,68.70
2019-03-18T11:11:18.922Z,66.70
2019-03-18T11:13:49.402Z,65.70
2019-03-18T11:16:19.909Z,67.10
2019-03-18T11:18:50.566Z,67.90
2019-03-18T11:21:23.170Z,70.40
2019-03-18T11:23:53.821Z,69.40
2019-03-18T11:26:24.399Z,71.00
2019-03-18T11:28:54.946Z,71.30
2019-03-18T11:31:25.500Z,72.00
2019-03-18T11:33:55.947Z,71.90
2019-03-18T11:36:26.959Z,70.80
2019-03-18T11:38:57.624Z,69.80
2019-03-18T11:41:28.080Z,69.80
2019-03-18T11:43:58.736Z,69.10
2019-03-18T11:46:29.484Z,70.10
2019-03-18T11:49:00.019Z,72.50
2019-03-18T11:51:30.485Z,70.70
2019-03-18T11:54:01.104Z,67.70
2019-03-18T11:56:33.860Z,66.70
2019-03-18T11:59:04.386Z,66.30
2019-03-18T12:01:35.010Z,69.50
2019-03-18T12:04:05.936Z,72.10
2019-03-18T12:06:36.590Z,72.50
2019-03-18T12:09:08.445Z,72.80
2019-03-18T12:11:39.193Z,72.70
2019-03-18T12:14:09.883Z,72.60
2019-03-18T12:16:41.590Z,71.30
2019-03-18T12:19:12.426Z,70.20
2019-03-18T12:21:43.248Z,70.80
2019-03-18T12:24:13.919Z,71.70
2019-03-18T12:26:49.083Z,68.10
2019-03-18T12:29:19.056Z,67.00
2019-03-18T12:31:49.774Z,67.20
2019-03-18T12:34:20.297Z,67.30
2019-03-18T12:36:51.000Z,66.30
2019-03-18T12:39:24.521Z,65.00
2019-03-18T12:41:53.920Z,65.70
2019-03-18T12:44:24.478Z,63.90
2019-03-18T12:46:55.061Z,62.60
2019-03-18T12:49:25.930Z,62.20
2019-03-18T12:51:56.790Z,61.70
2019-03-18T12:54:27.273Z,60.60
2019-03-18T12:56:57.911Z,59.60
2019-03-18T12:59:29.847Z,60.50
2019-03-18T13:02:00.458Z,60.30
2019-03-18T13:04:33.976Z,61.00
2019-03-18T13:07:03.381Z,60.60
2019-03-18T13:09:34.034Z,61.20
2019-03-18T13:12:04.671Z,58.70
2019-03-18T13:14:36.168Z,59.40
2019-03-18T13:17:06.692Z,60.90
2019-03-18T13:19:37.762Z,59.60
2019-03-18T13:22:09.470Z,59.90
2019-03-18T13:24:43.236Z,60.00
2019-03-18T13:27:14.104Z,59.90
2019-03-18T13:29:44.672Z,61.00
2019-03-18T13:32:16.421Z,61.00
2019-03-18T13:34:46.922Z,60.70
2019-03-18T13:37:17.512Z,60.80
2019-03-18T13:39:47.964Z,61.70
2019-03-18T13:42:18.612Z,60.20
2019-03-18T13:44:49.302Z,61.40
2019-03-18T13:47:20.018Z,62.80
2019-03-18T13:49:50.517Z,60.60
2019-03-18T13:52:21.195Z,60.80
2019-03-18T13:54:51.756Z,61.40
2019-03-18T13:57:24.932Z,63.10
2019-03-18T13:59:55.491Z,63.30
2019-03-18T14:02:26.081Z,62.90
2019-03-18T14:04:56.657Z,64.40
2019-03-18T14:07:27.112Z,65.00
2019-03-18T14:09:57.632Z,65.10
2019-03-18T14:12:28.425Z,64.60
2019-03-18T14:14:58.990Z,61.40
2019-03-18T14:17:30.579Z,60.70
2019-03-18T14:20:01.340Z,61.60
2019-03-18T14:22:32.998Z,59.70
2019-03-18T14:25:04.000Z,59.50
2019-03-18T14:27:34.596Z,59.60
2019-03-18T14:30:06.428Z,60.20
2019-03-18T14:32:37.187Z,56.90
2019-03-18T14:35:08.437Z,55.90
2019-03-18T14:37:39.077Z,54.70
2019-03-18T14:40:11.313Z,52.80
2019-03-18T14:42:41.935Z,53.90
2019-03-18T14:45:14.973Z,50.60
2019-03-18T14:47:46.739Z,50.70
2019-03-18T14:50:18.154Z,53.00
2019-03-18T14:52:48.707Z,51.50
2019-03-18T14:55:19.841Z,51.70
2019-03-18T14:57:50.542Z,52.50
2019-03-18T15:00:21.793Z,53.10
2019-03-18T15:02:54.902Z,52.40
2019-03-18T15:05:27.412Z,52.40
2019-03-18T15:07:58.089Z,51.10
2019-03-18T15:10:28.758Z,51.30
2019-03-18T15:12:59.577Z,49.50
2019-03-18T15:15:30.325Z,51.20
2019-03-18T15:18:00.945Z,51.50
2019-03-18T15:20:31.648Z,51.40
2019-03-18T15:23:04.295Z,52.50
2019-03-18T15:25:34.961Z,53.20
2019-03-18T15:28:05.687Z,53.50
2019-03-18T15:30:36.283Z,54.20
2019-03-18T15:33:06.874Z,55.30
2019-03-18T15:35:37.527Z,57.10
2019-03-18T15:38:08.137Z,59.40
2019-03-18T15:40:38.965Z,59.40
2019-03-18T15:43:09.350Z,59.90
2019-03-18T15:45:39.960Z,60.60
2019-03-18T15:48:10.604Z,62.10
2019-03-18T15:50:41.178Z,63.10
2019-03-18T15:53:11.751Z,64.40
2019-03-18T15:55:42.449Z,66.00
2019-03-18T15:58:13.094Z,65.30
2019-03-18T16:00:43.804Z,65.10
2019-03-18T16:03:14.456Z,65.10
2019-03-18T16:05:44.959Z,65.90
2019-03-18T16:08:15.708Z,67.20
2019-03-18T16:10:46.657Z,67.50
2019-03-18T16:13:17.162Z,67.70
2019-03-18T16:15:48.099Z,68.40
2019-03-18T16:18:18.749Z,68.70
2019-03-18T16:20:49.379Z,69.60
2019-03-18T16:23:20.069Z,70.50
2019-03-18T16:25:52.320Z,72.10
2019-03-18T16:28:22.918Z,72.70
2019-03-18T16:30:53.389Z,73.30
2019-03-18T16:33:23.937Z,73.30
2019-03-18T16:35:55.573Z,73.40
2019-03-18T16:38:26.364Z,73.90
2019-03-18T16:40:56.782Z,74.00
2019-03-18T16:43:27.433Z,74.00
2019-03-18T16:45:58.587Z,74.10
2019-03-18T16:48:29.528Z,74.70
2019-03-18T16:51:00.198Z,75.00
2019-03-18T16:53:30.987Z,75.20
2019-03-18T16:56:01.840Z,76.30
2019-03-18T16:58:32.611Z,76.80
2019-03-18T17:01:05.304Z,77.30
2019-03-18T17:03:36.016Z,78.30
2019-03-18T17:06:07.698Z,79.00
2019-03-18T17:08:38.334Z,79.80
2019-03-18T17:11:09.027Z,80.70
2019-03-18T17:13:40.019Z,80.40
2019-03-18T17:16:10.767Z,80.90
2019-03-18T17:18:41.435Z,80.70
2019-03-18T17:21:12.115Z,80.70
2019-03-18T17:23:42.758Z,80.70
2019-03-18T17:26:13.397Z,81.40
2019-03-18T17:28:44.161Z,80.90
2019-03-18T17:31:15.225Z,81.40
2019-03-18T17:33:46.032Z,81.90
2019-03-18T17:36:16.722Z,82.80
2019-03-18T17:38:47.334Z,83.90
2019-03-18T17:41:17.866Z,85.60
2019-03-18T17:43:48.395Z,86.40
2019-03-18T17:46:19.258Z,86.00
2019-03-18T17:48:49.867Z,86.50
2019-03-18T17:51:20.526Z,87.40
2019-03-18T17:53:51.114Z,87.70
2019-03-18T17:56:30.332Z,88.50
2019-03-18T17:58:54.155Z,89.00
2019-03-18T18:01:28.347Z,89.80
2019-03-18T18:03:59.062Z,90.10
2019-03-18T18:06:29.534Z,90.30
2019-03-18T18:09:00.245Z,90.60
2019-03-18T18:11:30.904Z,90.70
2019-03-18T18:14:01.646Z,90.80
2019-03-18T18:16:32.439Z,91.00
2019-03-18T18:19:03.214Z,91.10
2019-03-18T18:21:34.140Z,91.40
2019-03-18T18:24:04.958Z,91.60
2019-03-18T18:26:35.540Z,91.90
2019-03-18T18:29:06.109Z,92.20
2019-03-18T18:31:36.836Z,92.40
2019-03-18T18:34:07.586Z,92.60
2019-03-18T18:36:38.251Z,92.80
2019-03-18T18:39:09.268Z,92.80
2019-03-18T18:41:40.491Z,93.00
2019-03-18T18:44:11.678Z,93.20
2019-03-18T18:46:42.563Z,93.70
2019-03-18T18:49:13.280Z,94.00
2019-03-18T18:51:43.912Z,94.70
2019-03-18T18:54:14.555Z,94.70
2019-03-18T18:56:45.371Z,94.40
2019-03-18T18:59:16.009Z,94.30
2019-03-18T19:01:46.537Z,94.50
2019-03-18T19:04:18.050Z,95.00
2019-03-18T19:06:48.687Z,94.90
2019-03-18T19:09:19.590Z,95.10
2019-03-18T19:11:50.319Z,95.30
2019-03-18T19:14:20.905Z,95.20
2019-03-18T19:16:51.440Z,95.30
2019-03-18T19:19:23.831Z,95.30
2019-03-18T19:21:54.398Z,95.30
2019-03-18T19:24:24.909Z,95.40
2019-03-18T19:26:55.818Z,95.50
2019-03-18T19:29:26.384Z,95.60
2019-03-18T19:31:57.328Z,95.60
2019-03-18T19:34:28.158Z,95.70
2019-03-18T19:37:00.528Z,95.60
2019-03-18T19:39:32.395Z,95.50
2019-03-18T19:42:03.644Z,95.40
2019-03-18T19:44:35.715Z,95.50
2019-03-18T19:47:06.547Z,95.40
2019-03-18T19:49:37.381Z,95.50
2019-03-18T19:52:07.991Z,95.50
2019-03-18T19:54:38.736Z,95.50
2019-03-18T19:57:09.467Z,95.60
2019-03-18T19:59:40.588Z,95.50
2019-03-18T20:02:11.566Z,95.50
2019-03-18T20:04:42.183Z,95.60
2019-03-18T20:07:14.146Z,95.60
2019-03-18T20:09:44.885Z,95.60
2019-03-18T20:12:15.643Z,95.60
2019-03-18T20:14:46.377Z,95.60
2019-03-18T20:17:17.173Z,95.90
2019-03-18T20:19:47.684Z,96.00
2019-03-18T20:22:18.606Z,96.00
2019-03-18T20:24:51.273Z,96.10
2019-03-18T20:27:21.622Z,96.10
2019-03-18T20:29:52.261Z,96.50
2019-03-18T20:32:22.840Z,96.60
2019-03-18T20:34:53.450Z,96.70
2019-03-18T20:37:24.218Z,96.60
2019-03-18T20:39:54.813Z,96.40
2019-03-18T20:42:25.375Z,96.10
2019-03-18T20:44:56.350Z,96.00
2019-03-18T20:47:26.852Z,96.00
2019-03-18T20:49:57.487Z,95.80
2019-03-18T20:52:27.959Z,96.10
2019-03-18T20:54:58.425Z,96.10
2019-03-18T20:57:32.527Z,96.10
2019-03-18T21:00:03.301Z,96.50
2019-03-18T21:02:35.780Z,96.40
2019-03-18T21:05:07.978Z,96.60
2019-03-18T21:07:38.795Z,96.80
2019-03-18T21:16:23.733Z,96.90
2019-03-18T21:18:54.364Z,97.40
2019-03-18T21:21:25.047Z,97.20
2019-03-18T21:23:59.856Z,97.20
2019-03-18T21:26:30.410Z,97.30
2019-03-18T21:29:00.968Z,97.40
2019-03-18T21:31:31.535Z,97.50
2019-03-18T21:34:02.744Z,97.50
2019-03-18T21:36:53.848Z,97.70
2019-03-18T21:39:37.677Z,97.80
2019-03-18T21:42:08.177Z,98.00
2019-03-18T21:44:38.639Z,98.00
2019-03-18T21:47:09.406Z,98.10
2019-03-18T21:49:39.716Z,98.00
2019-03-18T21:52:10.271Z,98.00
2019-03-18T21:54:40.837Z,97.80
2019-03-18T21:57:11.590Z,97.30
2019-03-18T21:59:42.140Z,97.00
2019-03-18T22:02:12.819Z,96.90
2019-03-18T22:04:43.261Z,96.90
2019-03-18T22:07:13.741Z,97.30
2019-03-18T22:09:44.467Z,97.40
2019-03-18T22:12:14.931Z,97.30
2019-03-18T22:14:45.381Z,97.30
2019-03-18T22:17:15.866Z,97.00
2019-03-18T22:19:46.686Z,97.00
2019-03-18T22:22:17.312Z,96.70
2019-03-18T22:24:49.949Z,96.80
2019-03-18T22:27:20.037Z,97.00
2019-03-18T22:29:50.876Z,97.20
2019-03-18T22:32:21.385Z,97.10
2019-03-18T22:34:51.856Z,97.00
2019-03-18T22:37:22.322Z,97.00
2019-03-18T22:39:52.896Z,97.20
2019-03-18T22:42:23.266Z,97.30
2019-03-18T22:44:53.826Z,97.40
2019-03-18T22:47:24.195Z,97.60
2019-03-18T22:49:54.777Z,97.70
2019-03-18T22:52:25.507Z,97.90
2019-03-18T22:54:56.376Z,97.90
2019-03-18T22:57:28.174Z,97.90
2019-03-18T22:59:58.626Z,98.00
2019-03-18T23:02:29.366Z,98.00
2019-03-18T23:04:59.896Z,98.00
2019-03-18T23:07:30.361Z,98.20
2019-03-18T23:10:01.719Z,98.30
2019-03-18T23:12:32.282Z,98.50
2019-03-18T23:15:06.728Z,98.40
2019-03-18T23:17:38.358Z,98.40
2019-03-18T23:20:09.959Z,98.50
2019-03-18T23:22:40.477Z,98.70
2019-03-18T23:25:11.080Z,98.60
2019-03-18T23:27:41.562Z,98.80
2019-03-18T23:30:12.206Z,98.90
2019-03-18T23:32:43.935Z,98.90
2019-03-18T23:35:17.506Z,99.50
2019-03-18T23:37:48.707Z,99.30
2019-03-18T23:40:19.356Z,99.30
2019-03-18T23:42:49.935Z,99.30
2019-03-18T23:45:20.546Z,99.40
2019-03-18T23:47:51.288Z,99.40
2019-03-18T23:50:21.917Z,99.60
2019-03-18T23:52:52.513Z,99.60
2019-03-18T23:55:22.963Z,99.40
2019-03-18T23:57:54.520Z,99.50
